WMKC

Kota Bharu/Sultan Ismail Petra Airport

Airport
ICAO code
WMKC
IATA Code
KBR
Summary
ICAO Region
APAC
ICAO Territory
Location

Pengkalan Chepa, Kelantan

Serving
Kota Bharu
Elevation
16 ft
Coordinates
6° 10' 5" N , 102° 17' 37" E
KCC
Metar
Observation
WMKC 060300Z 07006KT 030V140 9999 FEW018 30/24 Q1011
Station
Kota Bharu
Date/Time
2022-10-06 03:00:00
Wind direction
70°
Wind speed
06 kts
Lowest cloud amount
few clouds
Temperature
30°C
Dew point
24°C
Humidity
70%
QNH
1011 hPa
Weather condition
n/a

Sultan Ismail Petra Airport is an airport that operates in Kota Bharu, a city in the state of Kelantan in Malaysia.

Climatology

Tropical Rainforest climate (Köppen climate classification Af) - almost no distinct seasons, average daily temperature around 27°C throughout the year. Extensive cloud cover and heavy rainfall prevent temperatures from rising much over 33°C. The diurnal temperature change is between 2°C and 5°C which is greater than the annual temperature range of 2°C. Rainfall is heavy and is usually convectional and in the afternoon.

Airport map

Aerial View

SKYbrary Partners:

Safety knowledge contributed by: